Pagrindinis puslapis
METAR-TAF:

METAR-TAF

Oro uostai :

Karakasas, Venesuela

platuma: 10-36N, ilguma: 066-59W, Aukštis: 43 m

Dabartinis oras

Ataskaita buvo paskelbta 25 minutes, ne 10:03 UTC
Vėjas 2 kt iš Rytų
Temperatūra 23°C
Drėgmė 106%
Slėgis 1013 hPa

METAR: SVMI 281003Z AUTO 09002KT NCD 23/24 Q1013

Laikas: 06:28 (10:28 UTC)

Prognozė

Ataskaita buvo paskelbta 6 valandos ir 28 minutes, ne 04:00 UTC
Prognozė galioja nuo 28 metu 06 UTC su 29 metu 06 UTC
Vėjas kt iš Šiaurės
Matomumas 10 km arba daugiau
Išsisklaidę debesys ne aukštis 1600 ft
Tapsmas
nuo 28 metu 06 UTC su 28 metu 10 UTC
Vėjas 3 kt iš Rytų/Šiaurės Rytų
Matomumas: 9000 m
Su prošvaistėmis ne aukštis 1000 ft
dulksna

TAF: SVMI 280400Z 2806/2906 00000KT 9999 SCT016 TX33/2818Z TN22/2808Z BECMG 2806/2810 07003KT 9000 -DZ BKN010

Orai ataskaitas ir orų prognozės (METAR, TAF).

turimą stotys yra geltonos ir raudonos taškus žemėlapyje.

Perkelti pele per norėdami pamatyti stoties vardą.

Tada spustelėkite, norėdami matyti oro stebėjimo ir prognozės.

Norėdami pakeisti žemėlapį: spustelėkite ant žalios mygtukų su juodo kryžiaus žemyn,; žalią mygtuką su brūkšneliu, jei norite nutolinti; arba žalių rodyklių gretimoms žemėlapius.


METAR-TAF: